^^
Station Historical Data
Daily Summary for May 5, 2017 Units:  English    Metric   Both
« Previous Day
Next Day »
Daily Weekly Monthly Yearly Custom
  High: Low: Average:
Temperature: 62.6 °F 48.5 °F 55.5 °F
Dew Point: 61.1 °F 43.6 °F 53.4 °F
Humidity: 96 % 75 % 93 %
Wind Speed: 4.1 mph 0.0 mph 0.4 mph
Wind Gust: 13.8 mph - -
Wind:- - ENE
Pressure: 30.08 in 29.42 in -
Precipitation: 0.80 in    
Historical Graphs
 
 
Tabular Data for May 5, 2017
Time Temperature Dew Point Pressure Wind Wind Speed Wind Gust Humidity Rainfall Rate (Hourly) solar Conditions
00:00 51.5 °F 43.8 °F 30.07 in Calm     75 % 0.00 in 0.0 W/m2 CLR
00:05 51.5 °F 43.8 °F 30.08 in Calm     75 % 0.00 in 0.0 W/m2 CLR
00:10 51.4 °F 43.7 °F 30.08 in Calm     75 % 0.00 in 0.0 W/m2 CLR
00:15 51.3 °F 43.6 °F 30.07 in Calm     75 % 0.00 in 0.0 W/m2 CLR
00:20 51.3 °F 43.6 °F 30.07 in Calm     75 % 0.00 in 0.0 W/m2 CLR
00:25 51.2 °F 43.9 °F 30.07 in Calm     76 % 0.00 in 0.0 W/m2 CLR
00:30 51.1 °F 43.8 °F 30.06 in Calm     76 % 0.00 in 0.0 W/m2 CLR
00:35 51.0 °F 44.4 °F 30.06 in Calm     78 % 0.00 in 0.0 W/m2 CLR
00:40 50.8 °F 44.5 °F 30.06 in Calm     79 % 0.00 in 0.0 W/m2 CLR
00:45 50.4 °F 44.5 °F 30.05 in Calm   1.2 mph 80 % 0.00 in 0.0 W/m2 CLR
00:50 50.2 °F 44.6 °F 30.05 in Calm     81 % 0.00 in 0.0 W/m2 CLR
00:55 49.9 °F 44.6 °F 30.04 in Calm     82 % 0.01 in 0.0 W/m2 RA
01:00 49.7 °F 44.7 °F 30.04 in Calm     83 % 0.01 in 0.0 W/m2 RA
01:05 49.5 °F 44.9 °F 30.04 in Calm     84 % 0.01 in 0.0 W/m2
01:10 49.4 °F 45.1 °F 30.03 in Calm     85 % 0.02 in 0.0 W/m2 RA
01:15 49.3 °F 45.0 °F 30.02 in Calm     85 % 0.02 in 0.0 W/m2 RA
01:20 49.3 °F 45.3 °F 30.02 in Calm     86 % 0.02 in 0.0 W/m2
01:25 49.1 °F 45.1 °F 30.02 in Calm     86 % 0.02 in 0.0 W/m2
01:30 49.2 °F 45.5 °F 30.02 in Calm     87 % 0.02 in 0.0 W/m2
01:35 49.1 °F 45.4 °F 30.02 in Calm     87 % 0.02 in 0.0 W/m2
01:40 49.0 °F 45.3 °F 30.02 in Calm     87 % 0.02 in 0.0 W/m2
01:45 49.0 °F 45.6 °F 30.02 in Calm     88 % 0.02 in 0.0 W/m2
01:50 49.0 °F 45.6 °F 30.01 in Calm     88 % 0.02 in 0.0 W/m2
01:55 48.8 °F 45.4 °F 30.01 in Calm     88 % 0.01 in 0.0 W/m2
02:00 48.7 °F 45.3 °F 30.01 in Calm     88 % 0.01 in 0.0 W/m2
02:05 48.8 °F 45.4 °F 30.00 in Calm     88 % 0.01 in 0.0 W/m2
02:10 48.8 °F 45.7 °F 30.00 in Calm     89 % 0.01 in 0.0 W/m2 RA
02:15 48.8 °F 45.7 °F 30.00 in Calm   4.6 mph 89 % 0.01 in 0.0 W/m2 RA
02:20 48.8 °F 45.7 °F 29.99 in NE 0.1 mph 1.2 mph 89 % 0.01 in 0.0 W/m2
02:25 48.7 °F 45.6 °F 29.99 in NE 0.1 mph 1.0 mph 89 % 0.02 in 0.0 W/m2 RA
02:30 48.6 °F 45.5 °F 29.98 in Calm     89 % 0.02 in 0.0 W/m2 RA
02:35 48.5 °F 45.4 °F 29.98 in Calm     89 % 0.02 in 0.0 W/m2
02:36 48.5 °F 45.4 °F 29.98 in Calm   1.2 mph 89 % 0.02 in 0.0 W/m2
02:41 48.5 °F 45.7 °F 29.97 in Calm     90 % 0.03 in 0.0 W/m2 RA
02:46 48.5 °F 45.7 °F 29.97 in Calm   1.2 mph 90 % 0.03 in 0.0 W/m2 RA
02:51 48.6 °F 45.8 °F 29.96 in Calm   1.2 mph 90 % 0.03 in 0.0 W/m2
02:56 48.6 °F 45.8 °F 29.96 in NNE 0.1 mph 1.2 mph 90 % 0.04 in 0.0 W/m2 RA
03:01 48.6 °F 45.8 °F 29.94 in Calm   1.2 mph 90 % 0.04 in 0.0 W/m2 RA
03:06 48.6 °F 45.8 °F 29.94 in Calm     90 % 0.04 in 0.0 W/m2
03:11 48.8 °F 46.3 °F 29.94 in NE 0.4 mph 1.0 mph 91 % 0.03 in 0.0 W/m2
03:16 48.7 °F 46.2 °F 29.94 in Calm     91 % 0.03 in 0.0 W/m2
03:21 48.7 °F 46.2 °F 29.94 in ESE 0.1 mph 1.2 mph 91 % 0.02 in 0.0 W/m2
03:26 48.8 °F 46.3 °F 29.94 in Calm     91 % 0.03 in 0.0 W/m2 RA
03:32 48.9 °F 46.4 °F 29.94 in Calm   3.5 mph 91 % 0.03 in 0.0 W/m2 RA
03:37 48.9 °F 46.4 °F 29.94 in SE 0.1 mph 3.5 mph 91 % 0.03 in 0.0 W/m2
03:42 49.0 °F 46.5 °F 29.93 in NE 0.5 mph 9.0 mph 91 % 0.02 in 0.0 W/m2
03:47 49.1 °F 46.6 °F 29.93 in NE 0.2 mph 1.2 mph 91 % 0.02 in 0.0 W/m2
03:52 49.1 °F 46.9 °F 29.93 in Calm     92 % 0.02 in 0.0 W/m2
03:57 49.2 °F 47.0 °F 29.93 in NNE 0.1 mph 1.2 mph 92 % 0.01 in 0.0 W/m2
04:02 49.4 °F 47.2 °F 29.92 in NNE 0.3 mph 2.3 mph 92 % 0.01 in 0.0 W/m2
04:07 49.5 °F 47.3 °F 29.92 in Calm   1.2 mph 92 % 0.01 in 0.0 W/m2
04:12 49.5 °F 47.3 °F 29.92 in ENE 0.3 mph 3.5 mph 92 % 0.01 in 0.0 W/m2
04:17 49.5 °F 47.3 °F 29.92 in Calm     92 % 0.01 in 0.0 W/m2
04:22 49.7 °F 47.5 °F 29.92 in NE 0.2 mph 1.2 mph 92 % 0.01 in 0.0 W/m2
04:27 49.8 °F 47.6 °F 29.92 in Calm     92 % 0.00 in 0.0 W/m2 CLR
04:32 49.8 °F 47.6 °F 29.91 in ESE 0.1 mph 1.2 mph 92 % 0.00 in 0.0 W/m2 CLR
04:37 49.9 °F 47.7 °F 29.91 in NNE 0.7 mph 3.5 mph 92 % 0.00 in 0.0 W/m2 CLR
04:42 50.0 °F 47.8 °F 29.90 in Calm     92 % 0.01 in 0.0 W/m2 RA
04:47 50.0 °F 47.8 °F 29.90 in East 0.1 mph 2.3 mph 92 % 0.01 in 0.0 W/m2 RA
04:52 50.1 °F 47.9 °F 29.89 in NNE 0.5 mph 3.5 mph 92 % 0.01 in 0.0 W/m2
04:57 50.3 °F 48.1 °F 29.89 in Calm     92 % 0.01 in 0.0 W/m2
05:02 50.3 °F 48.1 °F 29.89 in Calm     92 % 0.01 in 0.0 W/m2
05:07 50.4 °F 48.2 °F 29.88 in Calm     92 % 0.02 in 0.0 W/m2 RA
05:12 50.5 °F 48.3 °F 29.87 in Calm     92 % 0.02 in 0.0 W/m2 RA
05:17 50.5 °F 48.3 °F 29.88 in NNE 0.6 mph   92 % 0.03 in 0.0 W/m2 RA
05:22 50.5 °F 48.3 °F 29.87 in NNE 2.1 mph 2.3 mph 92 % 0.04 in 0.0 W/m2 RA
05:27 50.5 °F 48.6 °F 29.87 in Calm     93 % 0.04 in 0.0 W/m2 RA
05:32 50.6 °F 48.7 °F 29.87 in Calm     93 % 0.04 in 0.0 W/m2
05:37 50.6 °F 48.7 °F 29.86 in NE 0.1 mph   93 % 0.05 in 0.0 W/m2 RA
05:42 50.8 °F 48.8 °F 29.86 in NE 0.2 mph 3.5 mph 93 % 0.04 in 0.0 W/m2 RA
05:47 50.8 °F 48.8 °F 29.86 in NE 0.3 mph   93 % 0.04 in 0.0 W/m2
05:52 50.9 °F 48.9 °F 29.86 in Calm   5.0 mph 93 % 0.04 in 0.0 W/m2
05:57 51.0 °F 49.0 °F 29.86 in SE 0.2 mph   93 % 0.04 in 0.0 W/m2
06:02 51.0 °F 49.0 °F 29.86 in NE 0.1 mph 2.0 mph 93 % 0.04 in 0.0 W/m2
06:07 51.2 °F 49.2 °F 29.85 in Calm   1.2 mph 93 % 0.03 in 0.0 W/m2
06:12 51.2 °F 49.2 °F 29.85 in Calm     93 % 0.03 in 0.0 W/m2
06:17 51.3 °F 49.3 °F 29.85 in Calm     93 % 0.02 in 0.0 W/m2
06:22 51.3 °F 49.3 °F 29.84 in Calm     93 % 0.01 in 0.0 W/m2
06:27 51.3 °F 49.3 °F 29.84 in NE 0.1 mph 1.2 mph 93 % 0.01 in 0.0 W/m2
06:32 51.5 °F 49.5 °F 29.84 in ENE 0.1 mph 1.0 mph 93 % 0.01 in 0.0 W/m2
06:37 51.5 °F 49.5 °F 29.84 in Calm     93 % 0.00 in 0.0 W/m2 CLR
06:42 51.5 °F 49.5 °F 29.84 in Calm     93 % 0.00 in 0.0 W/m2 OVC
06:47 51.6 °F 49.6 °F 29.84 in Calm     93 % 0.00 in 0.0 W/m2 OVC
06:52 51.7 °F 49.7 °F 29.83 in North 0.1 mph 1.0 mph 93 % 0.00 in 0.0 W/m2 OVC
06:57 51.8 °F 49.8 °F 29.84 in Calm   1.2 mph 93 % 0.00 in 0.0 W/m2 OVC
07:02 51.9 °F 50.2 °F 29.83 in ESE 0.3 mph 2.0 mph 94 % 0.00 in 0.0 W/m2 OVC
07:07 52.2 °F 50.5 °F 29.83 in ENE 0.3 mph 8.1 mph 94 % 0.00 in 5.0 W/m2 OVC
07:12 52.4 °F 50.7 °F 29.83 in Calm     94 % 0.00 in 7.0 W/m2 OVC
07:17 52.4 °F 50.4 °F 29.83 in NE 0.8 mph 3.5 mph 93 % 0.00 in 7.0 W/m2 OVC
07:22 52.6 °F 50.6 °F 29.83 in Calm   3.5 mph 93 % 0.01 in 7.0 W/m2 RA
07:27 52.7 °F 50.7 °F 29.83 in Calm     93 % 0.01 in 14.0 W/m2 RA
07:32 52.8 °F 50.8 °F 29.82 in NNE 0.1 mph 1.0 mph 93 % 0.01 in 12.0 W/m2 OVC
07:37 52.9 °F 50.9 °F 29.82 in Calm   2.3 mph 93 % 0.01 in 19.0 W/m2 OVC
07:42 52.9 °F 50.9 °F 29.82 in Calm   3.5 mph 93 % 0.01 in 11.0 W/m2 OVC
07:47 53.0 °F 51.0 °F 29.82 in NNE 0.5 mph 4.0 mph 93 % 0.01 in 12.0 W/m2 OVC
07:52 52.9 °F 50.9 °F 29.81 in East 0.4 mph 2.3 mph 93 % 0.01 in 16.0 W/m2 OVC
07:57 52.8 °F 50.8 °F 29.80 in NNE 0.6 mph 5.0 mph 93 % 0.01 in 11.0 W/m2 OVC
08:02 52.8 °F 50.8 °F 29.80 in NNE 0.3 mph 4.0 mph 93 % 0.01 in 9.0 W/m2 OVC
08:07 53.0 °F 51.3 °F 29.79 in NNE 0.5 mph 1.2 mph 94 % 0.02 in 21.0 W/m2 RA
08:13 52.9 °F 50.9 °F 29.79 in East 2.3 mph 4.0 mph 93 % 0.02 in 14.0 W/m2 RA
08:18 52.9 °F 50.9 °F 29.78 in NE 0.7 mph 4.6 mph 93 % 0.02 in 26.0 W/m2 OVC
08:23 52.8 °F 50.8 °F 29.77 in NNE 1.2 mph 3.5 mph 93 % 0.02 in 35.0 W/m2 RA
08:28 52.9 °F 51.2 °F 29.77 in Calm     94 % 0.02 in 26.0 W/m2 RA
08:33 52.9 °F 50.9 °F 29.76 in ENE 0.4 mph 3.5 mph 93 % 0.02 in 19.0 W/m2 OVC
08:38 53.0 °F 51.3 °F 29.76 in North 2.7 mph 5.8 mph 94 % 0.03 in 25.0 W/m2 RA
08:43 53.0 °F 51.0 °F 29.75 in NNE 0.4 mph 3.5 mph 93 % 0.03 in 33.0 W/m2 RA
08:48 53.0 °F 51.0 °F 29.75 in ENE 3.1 mph 6.9 mph 93 % 0.03 in 23.0 W/m2 OVC
08:53 52.9 °F 51.2 °F 29.75 in East 0.8 mph 3.5 mph 94 % 0.03 in 39.0 W/m2 OVC
08:58 53.0 °F 51.3 °F 29.75 in NE 1.4 mph 9.0 mph 94 % 0.04 in 21.0 W/m2 RA
09:03 53.0 °F 51.3 °F 29.74 in NNE 0.6 mph 4.0 mph 94 % 0.04 in 40.0 W/m2 RA
09:08 53.0 °F 51.3 °F 29.74 in Calm   3.5 mph 94 % 0.04 in 51.0 W/m2 RA
09:13 53.0 °F 51.3 °F 29.73 in NE 1.1 mph 9.2 mph 94 % 0.04 in 37.0 W/m2 RA
09:18 53.0 °F 51.3 °F 29.73 in NE 0.6 mph   94 % 0.04 in 21.0 W/m2 OVC
09:23 52.9 °F 50.9 °F 29.73 in NNE 0.8 mph 3.0 mph 93 % 0.03 in 23.0 W/m2 OVC
09:28 52.9 °F 50.9 °F 29.73 in Calm   3.5 mph 93 % 0.04 in 26.0 W/m2 RA
09:33 52.9 °F 50.9 °F 29.72 in NNE 0.2 mph 3.5 mph 93 % 0.05 in 30.0 W/m2 RA
09:38 53.0 °F 51.3 °F 29.72 in NE 0.3 mph 3.0 mph 94 % 0.04 in 30.0 W/m2 RA
09:43 53.0 °F 51.3 °F 29.72 in NNE 0.6 mph 3.5 mph 94 % 0.05 in 21.0 W/m2 RA
09:48 52.9 °F 51.2 °F 29.72 in ENE 1.7 mph 9.2 mph 94 % 0.07 in 46.0 W/m2 RA
09:53 52.8 °F 50.8 °F 29.72 in Calm   1.2 mph 93 % 0.08 in 19.0 W/m2 RA
09:58 52.8 °F 51.1 °F 29.72 in ESE 1.9 mph 3.5 mph 94 % 0.09 in 28.0 W/m2 RA
10:03 52.7 °F 50.7 °F 29.72 in NE 1.5 mph 13.8 mph 93 % 0.12 in 32.0 W/m2 RA
10:08 52.8 °F 51.1 °F 29.71 in NNE 0.3 mph 3.5 mph 94 % 0.10 in 42.0 W/m2 RA
10:13 52.9 °F 51.2 °F 29.71 in NNE 1.1 mph 4.6 mph 94 % 0.12 in 37.0 W/m2 RA
10:18 52.8 °F 51.1 °F 29.70 in NNE 1.9 mph 9.2 mph 94 % 0.13 in 33.0 W/m2 RA
10:23 52.8 °F 51.1 °F 29.70 in NNE 0.1 mph 3.5 mph 94 % 0.14 in 30.0 W/m2 RA
10:28 52.7 °F 51.0 °F 29.70 in Calm     94 % 0.15 in 33.0 W/m2 RA
10:33 52.8 °F 51.1 °F 29.70 in NNE 1.5 mph 9.0 mph 94 % 0.19 in 26.0 W/m2 RA
10:38 52.7 °F 51.0 °F 29.70 in Calm     94 % 0.21 in 19.0 W/m2 RA
10:43 52.6 °F 50.9 °F 29.69 in Calm   3.5 mph 94 % 0.24 in 47.0 W/m2 RA
10:48 52.8 °F 51.1 °F 29.69 in East 2.2 mph 4.6 mph 94 % 0.24 in 49.0 W/m2 RA
10:53 52.8 °F 51.1 °F 29.69 in NNE 0.9 mph 3.0 mph 94 % 0.25 in 35.0 W/m2 RA
10:58 53.0 °F 51.3 °F 29.69 in NNE 1.3 mph 1.3 mph 94 % 0.24 in 47.0 W/m2 RA
11:03 53.0 °F 51.3 °F 29.68 in NE 1.1 mph 1.2 mph 94 % 0.23 in 62.0 W/m2 +RA
11:08 52.9 °F 51.2 °F 29.68 in Calm   9.2 mph 94 % 0.24 in 56.0 W/m2 +RA
11:13 52.9 °F 51.2 °F 29.67 in Calm   2.3 mph 94 % 0.24 in 67.0 W/m2 +RA
11:18 53.0 °F 51.3 °F 29.67 in NNE 1.9 mph 4.6 mph 94 % 0.23 in 70.0 W/m2 -RA
11:23 53.0 °F 51.3 °F 29.66 in NE 1.6 mph 8.1 mph 94 % 0.24 in 69.0 W/m2 -RA
11:28 53.0 °F 51.3 °F 29.66 in Calm   1.2 mph 94 % 0.23 in 25.0 W/m2 -RA
11:29 53.0 °F 51.3 °F 29.66 in Calm     94 % 0.22 in 25.0 W/m2 -RA
11:34 53.0 °F 51.3 °F 29.66 in NNE 0.1 mph 3.5 mph 94 % 0.20 in 37.0 W/m2 -RA
11:39 53.1 °F 51.4 °F 29.62 in NNE 0.9 mph 3.5 mph 94 % 0.22 in 97.0 W/m2 -RA
11:44 53.2 °F 51.5 °F 29.63 in East 2.5 mph 6.9 mph 94 % 0.20 in 77.0 W/m2 -RA
11:49 53.4 °F 52.0 °F 29.64 in North 0.8 mph 3.5 mph 95 % 0.18 in 79.0 W/m2 RA
11:54 53.8 °F 52.4 °F 29.62 in East 1.9 mph 9.2 mph 95 % 0.16 in 84.0 W/m2 OVC
11:59 54.0 °F 52.6 °F 29.62 in NE 0.3 mph 2.3 mph 95 % 0.16 in 70.0 W/m2 RA
12:04 54.1 °F 52.4 °F 29.63 in Calm     94 % 0.15 in 53.0 W/m2 RA
12:09 54.2 °F 52.5 °F 29.62 in NNE 3.1 mph 5.8 mph 94 % 0.14 in 202.0 W/m2 OVC
12:14 54.4 °F 52.7 °F 29.63 in ENE 0.7 mph 3.5 mph 94 % 0.13 in 79.0 W/m2 OVC
12:19 54.5 °F 52.8 °F 29.62 in NE 1.6 mph 8.1 mph 94 % 0.12 in 83.0 W/m2 OVC
12:24 54.6 °F 52.9 °F 29.61 in NNE 1.3 mph 6.0 mph 94 % 0.10 in 102.0 W/m2 OVC
12:29 54.8 °F 53.1 °F 29.59 in North 3.9 mph 8.0 mph 94 % 0.09 in 158.0 W/m2 OVC
12:34 54.9 °F 53.2 °F 29.60 in NE 0.7 mph 9.0 mph 94 % 0.07 in 88.0 W/m2 OVC
12:39 55.1 °F 53.4 °F 29.60 in Calm     94 % 0.03 in 141.0 W/m2 OVC
12:44 55.3 °F 53.6 °F 29.60 in ENE 3.5 mph 3.5 mph 94 % 0.01 in 102.0 W/m2 OVC
12:49 55.2 °F 53.5 °F 29.61 in Calm   1.2 mph 94 % 0.01 in 42.0 W/m2 OVC
12:54 55.3 °F 53.6 °F 29.61 in NNE 0.4 mph 3.5 mph 94 % 0.01 in 54.0 W/m2 OVC
12:59 55.4 °F 53.7 °F 29.60 in NNE 3.4 mph 6.0 mph 94 % 0.00 in 53.0 W/m2 OVC
13:04 55.5 °F 53.8 °F 29.59 in NNE 0.9 mph 2.3 mph 94 % 0.00 in 67.0 W/m2 OVC
13:10 55.6 °F 53.9 °F 29.58 in NNE 1.0 mph 7.0 mph 94 % 0.00 in 90.0 W/m2 OVC
13:15 55.8 °F 54.1 °F 29.58 in Calm   1.2 mph 94 % 0.00 in 93.0 W/m2 OVC
13:20 56.1 °F 54.4 °F 29.57 in Calm   1.2 mph 94 % 0.00 in 105.0 W/m2 OVC
13:25 56.2 °F 54.5 °F 29.57 in NE 0.6 mph 3.5 mph 94 % 0.00 in 91.0 W/m2 OVC
13:30 56.4 °F 54.7 °F 29.58 in Calm     94 % 0.00 in 49.0 W/m2 OVC
13:35 56.4 °F 54.7 °F 29.58 in North 0.1 mph 1.2 mph 94 % 0.00 in 63.0 W/m2 OVC
13:40 56.6 °F 54.9 °F 29.58 in Calm     94 % 0.00 in 70.0 W/m2 OVC
13:45 56.5 °F 54.8 °F 29.58 in North 2.7 mph 3.5 mph 94 % 0.00 in 67.0 W/m2 OVC
13:50 56.4 °F 54.7 °F 29.58 in North 1.1 mph 3.5 mph 94 % 0.00 in 77.0 W/m2 OVC
13:55 56.4 °F 54.7 °F 29.58 in NNE 1.1 mph 3.5 mph 94 % 0.00 in 77.0 W/m2 OVC
14:00 56.4 °F 54.7 °F 29.58 in Calm     94 % 0.00 in 79.0 W/m2 OVC
14:05 56.5 °F 54.8 °F 29.58 in NNE 0.9 mph 4.0 mph 94 % 0.00 in 111.0 W/m2 OVC
14:10 56.8 °F 55.1 °F 29.58 in Calm     94 % 0.00 in 148.0 W/m2 OVC
14:15 57.1 °F 55.4 °F 29.57 in NE 1.4 mph 3.5 mph 94 % 0.00 in 197.0 W/m2 OVC
14:20 57.5 °F 55.8 °F 29.57 in Calm     94 % 0.00 in 144.0 W/m2 OVC
14:25 57.6 °F 55.9 °F 29.57 in Calm     94 % 0.00 in 165.0 W/m2 OVC
14:30 57.8 °F 56.1 °F 29.57 in NE 0.6 mph 3.5 mph 94 % 0.00 in 216.0 W/m2 OVC
14:35 57.9 °F 56.2 °F 29.57 in NE 1.8 mph 3.5 mph 94 % 0.00 in 151.0 W/m2 OVC
14:40 57.9 °F 55.9 °F 29.57 in NE 0.6 mph 1.2 mph 93 % 0.00 in 81.0 W/m2 OVC
14:45 57.9 °F 56.2 °F 29.57 in NE 0.3 mph 3.5 mph 94 % 0.00 in 54.0 W/m2 OVC
14:50 58.0 °F 56.3 °F 29.57 in Calm     94 % 0.00 in 91.0 W/m2 OVC
14:55 58.1 °F 56.4 °F 29.57 in NNE 0.3 mph 2.0 mph 94 % 0.00 in 134.0 W/m2 OVC
15:00 58.0 °F 56.3 °F 29.56 in East 1.3 mph 3.5 mph 94 % 0.00 in 53.0 W/m2 OVC
15:05 57.9 °F 55.9 °F 29.57 in Calm     93 % 0.01 in 83.0 W/m2 RA
15:10 57.9 °F 56.2 °F 29.57 in Calm   1.2 mph 94 % 0.02 in 100.0 W/m2 RA
15:15 57.8 °F 56.1 °F 29.56 in Calm   1.2 mph 94 % 0.03 in 146.0 W/m2 RA
15:20 58.0 °F 56.3 °F 29.56 in NE 0.1 mph 1.0 mph 94 % 0.04 in 83.0 W/m2 RA
15:25 58.0 °F 56.3 °F 29.56 in Calm     94 % 0.04 in 107.0 W/m2 RA
15:30 58.1 °F 56.4 °F 29.55 in NNE 0.1 mph 2.3 mph 94 % 0.04 in 40.0 W/m2 OVC
15:35 58.0 °F 56.3 °F 29.55 in Calm   2.3 mph 94 % 0.04 in 46.0 W/m2 -RA
15:40 58.1 °F 56.4 °F 29.55 in Calm     94 % 0.04 in 46.0 W/m2 -RA
15:45 58.1 °F 56.4 °F 29.55 in NNE 0.1 mph 2.3 mph 94 % 0.05 in 70.0 W/m2 -RA
15:50 58.2 °F 56.5 °F 29.54 in Calm   1.2 mph 94 % 0.05 in 35.0 W/m2 -RA
15:51 58.2 °F 56.5 °F 29.54 in Calm     94 % 0.05 in 35.0 W/m2 -RA
15:56 58.3 °F 56.6 °F 29.54 in NNE 0.1 mph 2.3 mph 94 % 0.05 in 33.0 W/m2 -RA
16:01 58.3 °F 56.6 °F 29.55 in Calm     94 % 0.05 in 33.0 W/m2 -RA
16:06 58.4 °F 57.0 °F 29.54 in Calm     95 % 0.03 in 63.0 W/m2 -RA
16:11 58.7 °F 57.3 °F 29.54 in Calm   2.3 mph 95 % 0.03 in 72.0 W/m2 -RA
16:16 59.0 °F 57.6 °F 29.54 in Calm     95 % 0.02 in 72.0 W/m2 -RA
16:21 59.2 °F 57.8 °F 29.53 in Calm     95 % 0.01 in 109.0 W/m2 -RA
16:26 59.4 °F 58.0 °F 29.52 in Calm     95 % 0.01 in 127.0 W/m2 -RA
16:31 59.8 °F 58.4 °F 29.53 in Calm     95 % 0.01 in 176.0 W/m2 -RA
16:36 60.2 °F 58.8 °F 29.52 in ENE 0.7 mph 3.0 mph 95 % 0.01 in 195.0 W/m2 -RA
16:41 60.5 °F 59.1 °F 29.52 in Calm     95 % 0.01 in 253.0 W/m2 -RA
16:46 60.9 °F 59.5 °F 29.51 in ESE 1.4 mph 3.5 mph 95 % 0.00 in 301.0 W/m2 -RA
16:51 61.1 °F 59.7 °F 29.52 in Calm     95 % 0.00 in 380.0 W/m2 -RA
16:56 61.6 °F 60.2 °F 29.52 in ESE 1.0 mph 3.5 mph 95 % 0.00 in 392.0 W/m2 -RA
17:01 61.9 °F 60.5 °F 29.52 in ENE 0.5 mph 2.0 mph 95 % 0.00 in 381.0 W/m2 OVC
17:06 61.8 °F 60.4 °F 29.52 in SE 1.9 mph 3.5 mph 95 % 0.00 in 178.0 W/m2 OVC
17:11 62.0 °F 60.6 °F 29.51 in ESE 2.5 mph 5.8 mph 95 % 0.00 in 204.0 W/m2 OVC
17:16 62.0 °F 60.6 °F 29.51 in ESE 2.1 mph 3.5 mph 95 % 0.00 in 178.0 W/m2 OVC
17:21 62.1 °F 60.4 °F 29.51 in Calm   1.2 mph 94 % 0.00 in 214.0 W/m2 OVC
17:22 62.1 °F 60.4 °F 29.51 in ESE 1.6 mph 3.5 mph 94 % 0.00 in 211.0 W/m2 OVC
17:28 62.1 °F 60.4 °F 29.51 in East 2.5 mph 4.0 mph 94 % 0.00 in 197.0 W/m2 OVC
17:33 62.1 °F 60.4 °F 29.51 in ESE 1.8 mph 3.5 mph 94 % 0.00 in 216.0 W/m2 OVC
17:38 62.1 °F 60.4 °F 29.51 in ENE 2.5 mph 3.5 mph 94 % 0.00 in 165.0 W/m2 OVC
17:43 62.1 °F 60.4 °F 29.51 in East 0.3 mph 2.3 mph 94 % 0.00 in 98.0 W/m2 OVC
17:48 62.1 °F 60.4 °F 29.51 in ESE 1.5 mph 3.5 mph 94 % 0.00 in 69.0 W/m2 OVC
17:53 61.9 °F 60.2 °F 29.51 in ESE 0.9 mph 3.5 mph 94 % 0.00 in 35.0 W/m2 OVC
17:58 61.9 °F 60.2 °F 29.50 in Calm     94 % 0.00 in 39.0 W/m2 OVC
18:03 61.8 °F 60.1 °F 29.50 in Calm     94 % 0.00 in 26.0 W/m2 OVC
18:08 62.0 °F 60.3 °F 29.50 in South 0.5 mph 2.3 mph 94 % 0.00 in 44.0 W/m2 OVC
18:13 62.0 °F 60.3 °F 29.50 in Calm     94 % 0.00 in 69.0 W/m2 OVC
18:18 62.0 °F 60.3 °F 29.50 in Calm     94 % 0.00 in 32.0 W/m2 OVC
18:23 62.0 °F 60.3 °F 29.50 in Calm     94 % 0.00 in 46.0 W/m2 OVC
18:28 62.1 °F 60.4 °F 29.49 in NNE 0.1 mph 1.2 mph 94 % 0.00 in 40.0 W/m2 OVC
18:33 62.1 °F 60.4 °F 29.50 in ENE 0.1 mph 1.2 mph 94 % 0.00 in 39.0 W/m2 OVC
18:38 62.1 °F 60.4 °F 29.50 in NNE 0.8 mph 2.3 mph 94 % 0.00 in 23.0 W/m2 OVC
18:43 62.1 °F 60.4 °F 29.50 in Calm     94 % 0.00 in 14.0 W/m2 OVC
18:48 61.9 °F 60.2 °F 29.50 in ENE 0.4 mph 2.3 mph 94 % 0.00 in 18.0 W/m2 OVC
18:53 61.7 °F 60.0 °F 29.50 in Calm   1.0 mph 94 % 0.00 in 19.0 W/m2 OVC
18:58 61.7 °F 60.0 °F 29.50 in NE 1.0 mph 2.0 mph 94 % 0.00 in 14.0 W/m2 OVC
19:03 61.6 °F 59.9 °F 29.50 in Calm     94 % 0.00 in 19.0 W/m2 OVC
19:08 61.6 °F 59.9 °F 29.50 in Calm     94 % 0.00 in 19.0 W/m2 OVC
19:13 61.7 °F 60.0 °F 29.50 in NE 0.1 mph   94 % 0.00 in 28.0 W/m2 OVC
19:18 61.8 °F 60.1 °F 29.50 in Calm     94 % 0.00 in 16.0 W/m2 OVC
19:23 61.7 °F 60.0 °F 29.50 in Calm   1.2 mph 94 % 0.00 in 16.0 W/m2 OVC
19:28 61.7 °F 60.0 °F 29.49 in NE 0.2 mph 2.3 mph 94 % 0.00 in 9.0 W/m2 OVC
19:33 61.6 °F 59.9 °F 29.50 in SE 0.6 mph 2.3 mph 94 % 0.00 in 5.0 W/m2 OVC
19:38 61.7 °F 60.0 °F 29.49 in Calm   2.3 mph 94 % 0.00 in 5.0 W/m2 OVC
19:43 61.8 °F 60.1 °F 29.49 in Calm   1.2 mph 94 % 0.00 in 0.0 W/m2 OVC
19:48 61.8 °F 60.1 °F 29.49 in Calm     94 % 0.00 in 0.0 W/m2 OVC
19:53 61.8 °F 60.1 °F 29.49 in Calm     94 % 0.00 in 0.0 W/m2 OVC
19:58 61.8 °F 60.1 °F 29.49 in Calm   1.2 mph 94 % 0.00 in 0.0 W/m2 OVC
20:03 61.8 °F 60.1 °F 29.49 in Calm     94 % 0.00 in 0.0 W/m2 OVC
20:08 61.8 °F 60.1 °F 29.48 in Calm     94 % 0.00 in 0.0 W/m2 OVC
20:13 61.8 °F 60.1 °F 29.48 in Calm   1.2 mph 94 % 0.00 in 0.0 W/m2 OVC
20:18 61.8 °F 60.1 °F 29.48 in NNE 0.1 mph 2.0 mph 94 % 0.00 in 0.0 W/m2 OVC
20:23 61.9 °F 60.2 °F 29.48 in Calm     94 % 0.00 in 0.0 W/m2 OVC
20:28 61.9 °F 60.2 °F 29.48 in Calm     94 % 0.00 in 0.0 W/m2 OVC
20:33 61.9 °F 60.2 °F 29.48 in Calm     94 % 0.00 in 0.0 W/m2 OVC
20:39 61.9 °F 60.2 °F 29.48 in Calm     94 % 0.00 in 0.0 W/m2 OVC
20:44 62.0 °F 60.3 °F 29.47 in NE 0.9 mph 3.5 mph 94 % 0.00 in 0.0 W/m2 OVC
20:49 62.1 °F 60.4 °F 29.47 in Calm     94 % 0.00 in 0.0 W/m2 OVC
20:54 62.1 °F 60.4 °F 29.47 in Calm     94 % 0.00 in 0.0 W/m2 OVC
20:59 61.9 °F 60.2 °F 29.47 in Calm     94 % 0.00 in 0.0 W/m2 OVC
21:04 61.8 °F 60.1 °F 29.47 in Calm     94 % 0.01 in 0.0 W/m2 RA
21:09 61.8 °F 60.1 °F 29.47 in Calm     94 % 0.01 in 0.0 W/m2 RA
21:14 61.6 °F 59.9 °F 29.47 in Calm     94 % 0.01 in 0.0 W/m2 OVC
21:19 61.6 °F 59.9 °F 29.47 in Calm     94 % 0.01 in 0.0 W/m2 OVC
21:24 61.5 °F 59.8 °F 29.47 in Calm     94 % 0.01 in 0.0 W/m2 -RA
21:29 61.5 °F 59.8 °F 29.47 in Calm     94 % 0.02 in 0.0 W/m2 -RA
21:34 61.5 °F 59.8 °F 29.47 in Calm     94 % 0.03 in 0.0 W/m2 -RA
21:39 61.4 °F 59.7 °F 29.47 in Calm     94 % 0.03 in 0.0 W/m2 -RA
21:44 61.4 °F 59.7 °F 29.46 in Calm     94 % 0.04 in 0.0 W/m2 -RA
21:49 61.3 °F 59.9 °F 29.46 in Calm     95 % 0.04 in 0.0 W/m2 -RA
21:54 61.3 °F 59.9 °F 29.46 in Calm     95 % 0.05 in 0.0 W/m2 -RA
21:59 61.3 °F 59.9 °F 29.46 in Calm     95 % 0.05 in 0.0 W/m2 -RA
22:04 61.2 °F 59.8 °F 29.46 in Calm     95 % 0.04 in 0.0 W/m2 -RA
22:09 61.2 °F 59.8 °F 29.46 in Calm     95 % 0.04 in 0.0 W/m2 -RA
22:14 61.2 °F 59.8 °F 29.46 in Calm     95 % 0.05 in 0.0 W/m2 -RA
22:19 61.2 °F 59.8 °F 29.46 in Calm     95 % 0.05 in 0.0 W/m2 -RA
22:24 61.2 °F 59.8 °F 29.45 in Calm     95 % 0.05 in 0.0 W/m2 -RA
22:29 61.3 °F 59.9 °F 29.45 in Calm     95 % 0.04 in 0.0 W/m2 -RA
22:34 61.4 °F 60.0 °F 29.45 in Calm     95 % 0.03 in 0.0 W/m2 -RA
22:39 61.6 °F 60.2 °F 29.45 in Calm   1.2 mph 95 % 0.03 in 0.0 W/m2 -RA
22:44 61.6 °F 60.2 °F 29.45 in Calm   3.5 mph 95 % 0.02 in 0.0 W/m2 -RA
22:49 61.7 °F 60.3 °F 29.45 in Calm     95 % 0.02 in 0.0 W/m2 -RA
22:54 61.7 °F 60.3 °F 29.45 in Calm     95 % 0.02 in 0.0 W/m2 -RA
22:59 62.0 °F 60.8 °F 29.45 in SSE 1.7 mph 3.5 mph 96 % 0.02 in 0.0 W/m2 -RA
23:04 62.1 °F 60.9 °F 29.45 in Calm     96 % 0.02 in 0.0 W/m2 -RA
23:09 62.2 °F 60.8 °F 29.44 in SE 1.0 mph 4.0 mph 95 % 0.02 in 0.0 W/m2 -RA
23:14 62.2 °F 60.8 °F 29.44 in SSW 0.7 mph 2.0 mph 95 % 0.01 in 0.0 W/m2 -RA
23:19 62.3 °F 60.8 °F 29.43 in South 0.2 mph 2.3 mph 95 % 0.01 in 0.0 W/m2 -RA
23:24 62.3 °F 60.8 °F 29.43 in Calm   2.0 mph 95 % 0.01 in 0.0 W/m2 -RA
23:29 62.3 °F 60.8 °F 29.43 in SSE 1.7 mph 2.0 mph 95 % 0.01 in 0.0 W/m2 -RA
23:34 62.3 °F 60.8 °F 29.43 in SE 0.7 mph 7.0 mph 95 % 0.01 in 0.0 W/m2 -RA
23:39 62.4 °F 60.9 °F 29.43 in Calm   3.5 mph 95 % 0.01 in 0.0 W/m2 -RA
23:44 62.5 °F 61.0 °F 29.43 in South 0.2 mph 3.5 mph 95 % 0.01 in 0.0 W/m2 -RA
23:49 62.5 °F 61.0 °F 29.43 in Calm     95 % 0.01 in 0.0 W/m2 -RA
23:54 62.5 °F 61.0 °F 29.43 in SSE 4.1 mph 11.0 mph 95 % 0.00 in 0.0 W/m2 -RA
23:59 62.6 °F 61.1 °F 29.42 in South 0.3 mph 2.3 mph 95 % 0.00 in 0.0 W/m2 -RA
Air Products Campus Weather
Compliments of Weather Underground - 3.5 mb